Time;durP1;ratioP1;P1;durP2;ratioP2;P2;SDS_P1;SDS_P2;PMS_P1;PMS_P2;Temp;Humidity;BMP_temperature;BMP_pressure;BME280_temperature;BME280_humidity;BME280_pressure;Samples;Min_cycle;Max_cycle;Signal;HPM_P1;HPM_P2
2023/08/19 00:02:14;;;;;;;20.35;14.95;;;23.40;99.90;;;;;;4915287;29;20032;-72
2023/08/19 00:04:40;;;;;;;19.02;14.02;;;23.40;99.90;;;;;;4915362;29;20023;-72
2023/08/19 00:07:06;;;;;;;19.77;15.18;;;23.40;99.90;;;;;;4914891;29;20492;-73
2023/08/19 00:09:36;;;;;;;20.55;15.88;;;23.40;99.90;;;;;;4915055;29;20396;-72
2023/08/19 00:12:02;;;;;;;23.27;15.55;;;23.40;99.90;;;;;;4915166;29;20167;-72
2023/08/19 00:14:29;;;;;;;21.65;14.95;;;23.40;99.90;;;;;;4915426;29;20035;-78
2023/08/19 00:16:55;;;;;;;20.52;15.77;;;23.40;99.90;;;;;;4914511;29;20056;-75
2023/08/19 00:19:21;;;;;;;24.38;15.75;;;;;;;;;;4915244;29;20660;-73
2023/08/19 00:21:47;;;;;;;21.58;15.43;;;23.30;99.90;;;;;;4917879;29;20548;-72
2023/08/19 00:24:12;;;;;;;20.60;14.85;;;23.30;99.90;;;;;;4917972;29;20103;-75
2023/08/19 00:26:38;;;;;;;21.15;14.98;;;23.40;99.90;;;;;;4917702;29;20036;-72
2023/08/19 00:29:04;;;;;;;20.77;15.13;;;;;;;;;;4917931;29;20386;-76
2023/08/19 00:31:31;;;;;;;20.58;14.65;;;;;;;;;;4908703;29;20572;-75
2023/08/19 00:33:56;;;;;;;20.90;16.50;;;23.20;99.90;;;;;;4908389;29;20117;-74
2023/08/19 00:36:22;;;;;;;24.35;16.08;;;23.20;99.90;;;;;;4891657;29;20128;-76
2023/08/19 00:38:56;;;;;;;23.08;16.95;;;23.20;99.90;;;;;;4900220;29;20052;-74
2023/08/19 00:41:22;;;;;;;27.58;16.77;;;23.30;99.90;;;;;;4900792;29;20070;-72
2023/08/19 00:43:48;;;;;;;21.13;15.15;;;;;;;;;;4900589;29;20076;-72
2023/08/19 00:46:14;;;;;;;20.10;15.80;;;23.10;99.90;;;;;;4909301;29;20135;-71
2023/08/19 00:48:40;;;;;;;21.83;16.63;;;23.00;99.90;;;;;;4881157;29;20124;-73
2023/08/19 00:51:07;;;;;;;21.42;15.63;;;23.00;99.90;;;;;;4903714;29;20017;-74
2023/08/19 00:53:34;;;;;;;18.88;14.68;;;23.10;99.90;;;;;;4899780;29;20477;-75
2023/08/19 00:56:00;;;;;;;20.55;15.00;;;23.30;99.90;;;;;;4896458;29;20021;-73
2023/08/19 00:58:26;;;;;;;23.48;17.08;;;23.10;99.90;;;;;;4901870;29;20492;-72
2023/08/19 01:00:53;;;;;;;21.52;16.13;;;23.10;99.90;;;;;;4900268;29;20481;-75
2023/08/19 01:03:19;;;;;;;20.95;16.80;;;23.10;99.90;;;;;;4896384;29;20036;-73
2023/08/19 01:06:18;;;;;;;25.15;16.80;;;23.10;99.90;;;;;;4898686;29;20025;-72
2023/08/19 01:08:59;;;;;;;24.00;17.02;;;23.10;99.90;;;;;;4897324;29;20036;-72
2023/08/19 01:11:57;;;;;;;23.08;17.05;;;23.10;99.90;;;;;;4897968;29;20104;-75
2023/08/19 01:14:26;;;;;;;22.08;16.45;;;23.10;99.90;;;;;;4897297;29;20044;-74
2023/08/19 01:16:53;;;;;;;23.52;16.45;;;23.00;99.90;;;;;;4897246;29;20023;-73
2023/08/19 01:19:23;;;;;;;24.67;16.95;;;23.10;99.90;;;;;;4900197;29;20103;-72
2023/08/19 01:21:57;;;;;;;23.85;17.30;;;22.90;99.90;;;;;;4897353;29;20020;-73
2023/08/19 01:24:27;;;;;;;21.88;17.08;;;22.90;99.90;;;;;;4897435;29;20898;-72
2023/08/19 01:26:54;;;;;;;25.75;16.52;;;23.00;99.90;;;;;;4896122;29;20047;-75
2023/08/19 01:29:21;;;;;;;24.33;17.40;;;22.90;99.90;;;;;;4900875;29;20025;-75
2023/08/19 01:31:46;;;;;;;21.85;16.20;;;22.90;99.90;;;;;;4896332;29;20029;-75
2023/08/19 01:34:12;;;;;;;20.75;17.23;;;22.90;99.90;;;;;;4899558;29;20048;-73
2023/08/19 01:36:44;;;;;;;23.77;17.58;;;22.90;99.90;;;;;;4897010;29;20683;-73
2023/08/19 01:39:10;;;;;;;21.45;16.90;;;23.00;99.90;;;;;;4895143;29;20045;-72
2023/08/19 01:41:38;;;;;;;25.17;17.80;;;23.00;99.90;;;;;;4896931;29;20043;-75
2023/08/19 01:44:04;;;;;;;22.50;16.63;;;23.00;99.90;;;;;;4895708;29;20024;-72
2023/08/19 01:46:30;;;;;;;22.45;17.52;;;22.90;99.90;;;;;;4896688;29;20033;-75
2023/08/19 01:48:56;;;;;;;19.70;15.82;;;22.80;99.90;;;;;;4902232;29;20363;-72
2023/08/19 01:51:22;;;;;;;23.13;18.02;;;23.00;99.90;;;;;;4897758;29;20465;-75
2023/08/19 01:53:48;;;;;;;25.65;17.55;;;22.90;99.90;;;;;;4894999;29;20033;-74
2023/08/19 01:56:13;;;;;;;25.15;17.52;;;22.80;99.90;;;;;;4896424;29;20039;-74
2023/08/19 01:58:40;;;;;;;21.65;17.73;;;22.70;99.90;;;;;;4898438;29;20025;-75
2023/08/19 02:01:11;;;;;;;23.48;18.15;;;22.70;99.90;;;;;;4895803;29;20089;-76
2023/08/19 02:03:37;;;;;;;27.83;18.50;;;22.80;99.90;;;;;;4896557;29;20020;-75
2023/08/19 02:06:03;;;;;;;24.67;16.90;;;22.60;99.90;;;;;;4896220;29;20040;-72
2023/08/19 02:08:28;;;;;;;23.10;18.25;;;22.60;99.90;;;;;;4894908;29;20051;-73
2023/08/19 02:10:54;;;;;;;24.95;18.17;;;22.60;99.90;;;;;;4896787;29;20044;-72
2023/08/19 02:13:20;;;;;;;24.15;17.33;;;22.50;99.90;;;;;;4896058;29;20041;-73
2023/08/19 02:15:46;;;;;;;25.77;19.55;;;22.60;99.90;;;;;;4896313;29;20032;-73
2023/08/19 02:18:12;;;;;;;22.42;18.38;;;22.50;99.90;;;;;;4898268;29;20068;-73
2023/08/19 02:20:38;;;;;;;22.27;18.92;;;22.40;99.90;;;;;;4895272;29;20032;-74
2023/08/19 02:23:03;;;;;;;22.05;17.75;;;22.40;99.90;;;;;;4896142;29;20036;-72
2023/08/19 02:25:29;;;;;;;25.48;18.40;;;22.40;99.90;;;;;;4894525;29;20029;-73
2023/08/19 02:27:55;;;;;;;25.42;19.15;;;22.40;99.90;;;;;;4879230;29;20036;-73
2023/08/19 02:30:21;;;;;;;27.23;18.98;;;22.30;99.90;;;;;;4896118;29;20466;-74
2023/08/19 02:32:47;;;;;;;22.45;18.45;;;22.40;99.90;;;;;;4895892;29;20025;-75
2023/08/19 02:35:14;;;;;;;23.33;18.10;;;22.30;99.90;;;;;;4895639;29;20028;-73
2023/08/19 02:37:39;;;;;;;23.42;17.77;;;22.30;99.90;;;;;;4862633;29;20172;-76
2023/08/19 02:40:06;;;;;;;22.17;17.88;;;22.30;99.90;;;;;;4897786;29;20116;-73
2023/08/19 02:42:32;;;;;;;24.52;18.02;;;22.30;99.90;;;;;;4894685;29;20029;-73
2023/08/19 02:44:58;;;;;;;22.90;17.83;;;22.20;99.90;;;;;;4902477;29;20028;-74
2023/08/19 02:47:24;;;;;;;22.95;17.75;;;22.20;99.90;;;;;;4899686;29;20295;-77
2023/08/19 02:49:50;;;;;;;24.92;19.42;;;22.20;99.90;;;;;;4878277;29;20041;-72
2023/08/19 02:52:18;;;;;;;23.92;19.35;;;22.10;99.90;;;;;;4895780;29;20033;-74
2023/08/19 02:54:45;;;;;;;23.48;18.25;;;22.20;99.90;;;;;;4895856;29;20501;-73
2023/08/19 02:57:10;;;;;;;23.45;19.05;;;22.10;99.90;;;;;;4895592;29;20182;-75
2023/08/19 02:59:36;;;;;;;22.17;16.92;;;22.00;99.90;;;;;;4895571;29;20107;-74
2023/08/19 03:02:02;;;;;;;29.98;19.77;;;22.00;99.90;;;;;;4895451;29;20033;-77
2023/08/19 03:04:28;;;;;;;23.33;17.98;;;21.90;99.90;;;;;;4895868;29;20031;-75
2023/08/19 03:06:54;;;;;;;22.80;18.42;;;21.90;99.90;;;;;;4878357;29;20044;-73
2023/08/19 03:09:20;;;;;;;23.20;16.77;;;21.90;99.90;;;;;;4896018;29;20040;-73
2023/08/19 03:11:46;;;;;;;26.17;19.55;;;21.90;99.90;;;;;;4901498;29;20477;-73
2023/08/19 03:14:11;;;;;;;23.95;18.25;;;21.90;99.90;;;;;;4895155;29;20040;-75
2023/08/19 03:16:37;;;;;;;31.73;18.02;;;21.80;99.90;;;;;;4898155;29;20036;-72
2023/08/19 03:19:03;;;;;;;23.75;18.02;;;21.80;99.90;;;;;;4897228;29;20437;-72
2023/08/19 03:21:29;;;;;;;21.88;17.10;;;21.80;99.90;;;;;;4879187;29;20067;-72
2023/08/19 03:23:55;;;;;;;22.15;17.58;;;21.70;99.90;;;;;;4897770;29;20465;-75
2023/08/19 03:26:22;;;;;;;23.55;18.25;;;21.70;99.90;;;;;;4902881;29;20028;-76
2023/08/19 03:28:48;;;;;;;26.75;17.42;;;21.70;99.90;;;;;;4895322;29;20027;-77
2023/08/19 03:31:14;;;;;;;22.10;18.27;;;21.70;99.90;;;;;;4894929;29;20400;-76
2023/08/19 03:33:41;;;;;;;25.50;18.05;;;21.70;99.90;;;;;;4893032;29;20116;-73
2023/08/19 03:36:08;;;;;;;27.52;18.80;;;21.70;99.90;;;;;;4895417;29;20063;-76
2023/08/19 03:38:35;;;;;;;22.45;17.88;;;21.60;99.90;;;;;;4893428;29;20052;-75
2023/08/19 03:41:01;;;;;;;24.08;18.70;;;21.60;99.90;;;;;;4894432;29;20124;-75
2023/08/19 03:43:27;;;;;;;23.98;17.77;;;21.60;99.90;;;;;;4894781;29;20035;-73
2023/08/19 03:45:53;;;;;;;23.15;16.83;;;21.60;99.90;;;;;;4898565;29;20459;-76
2023/08/19 03:48:19;;;;;;;22.10;18.10;;;21.60;99.90;;;;;;4893606;29;20033;-73
2023/08/19 03:50:45;;;;;;;24.70;18.85;;;21.60;99.90;;;;;;4893902;29;20067;-75
2023/08/19 03:53:11;;;;;;;22.38;17.73;;;21.60;99.90;;;;;;4895365;29;20032;-73
2023/08/19 03:55:37;;;;;;;23.40;16.48;;;21.60;99.90;;;;;;4897914;29;20021;-75
2023/08/19 03:58:03;;;;;;;21.65;16.77;;;21.50;99.90;;;;;;4898824;29;20024;-75
2023/08/19 04:00:28;;;;;;;23.85;17.67;;;21.50;99.90;;;;;;4901737;29;20032;-73
2023/08/19 04:02:54;;;;;;;24.50;16.75;;;21.50;99.90;;;;;;4893095;29;20454;-73
2023/08/19 04:05:20;;;;;;;22.20;16.48;;;21.50;99.90;;;;;;4896522;29;20025;-74
2023/08/19 04:07:46;;;;;;;22.45;16.67;;;21.50;99.90;;;;;;4881646;29;20128;-76
2023/08/19 04:10:12;;;;;;;21.15;16.10;;;21.60;99.90;;;;;;4897317;29;20489;-72
2023/08/19 04:12:39;;;;;;;22.80;16.98;;;21.50;99.90;;;;;;4897800;29;20054;-73
2023/08/19 04:15:06;;;;;;;20.60;15.45;;;21.50;99.90;;;;;;4899621;29;20024;-73
2023/08/19 04:17:34;;;;;;;22.80;17.75;;;21.50;99.90;;;;;;4885313;29;20036;-74
2023/08/19 04:20:00;;;;;;;22.83;18.90;;;21.60;99.90;;;;;;4901102;29;20500;-75
2023/08/19 04:22:26;;;;;;;25.38;18.05;;;21.60;99.90;;;;;;4900864;29;20036;-76
2023/08/19 04:24:55;;;;;;;25.20;17.67;;;21.70;99.90;;;;;;4898794;29;20114;-76
2023/08/19 04:27:22;;;;;;;25.17;19.00;;;21.60;99.90;;;;;;4917867;29;20176;-77
2023/08/19 04:29:48;;;;;;;28.25;19.58;;;21.70;99.90;;;;;;4900809;29;20137;-75
2023/08/19 04:32:16;;;;;;;22.25;17.80;;;22.10;99.90;;;;;;4902780;29;20115;-77
2023/08/19 04:34:42;;;;;;;24.75;18.70;;;22.40;99.90;;;;;;4898947;29;20238;-75
2023/08/19 04:37:09;;;;;;;25.45;17.88;;;22.50;99.90;;;;;;4900829;29;20043;-77
2023/08/19 04:39:37;;;;;;;22.20;17.92;;;22.50;99.90;;;;;;4900637;29;20059;-77
2023/08/19 04:42:11;;;;;;;25.27;18.98;;;22.50;99.90;;;;;;4900774;29;20119;-77
2023/08/19 04:44:37;;;;;;;24.98;18.40;;;22.50;99.90;;;;;;4900549;29;20123;-77
2023/08/19 04:47:03;;;;;;;21.85;17.85;;;22.50;99.90;;;;;;4900621;29;20047;-73
2023/08/19 04:49:30;;;;;;;23.30;18.33;;;22.60;99.90;;;;;;4900423;29;20044;-73
2023/08/19 04:51:56;;;;;;;23.25;18.35;;;22.80;99.90;;;;;;4900604;29;20032;-75
2023/08/19 04:54:22;;;;;;;24.75;18.63;;;22.70;99.90;;;;;;4900474;29;20032;-73
2023/08/19 04:56:48;;;;;;;23.17;18.00;;;22.80;99.90;;;;;;4917554;29;20136;-73
2023/08/19 04:59:14;;;;;;;22.40;17.90;;;23.00;99.90;;;;;;4892487;29;20036;-73
2023/08/19 05:01:40;;;;;;;24.90;17.27;;;23.00;99.90;;;;;;4899819;29;20064;-73
2023/08/19 05:04:07;;;;;;;23.35;17.70;;;23.10;99.90;;;;;;4896808;29;20473;-73
2023/08/19 05:06:33;;;;;;;23.67;18.77;;;23.00;99.90;;;;;;4898271;29;20159;-74
2023/08/19 05:08:59;;;;;;;23.92;17.88;;;22.90;99.90;;;;;;4898374;29;20056;-74
2023/08/19 05:11:27;;;;;;;24.33;19.70;;;22.80;99.90;;;;;;4896884;29;20088;-74
2023/08/19 05:13:57;;;;;;;23.02;18.42;;;22.80;99.90;;;;;;4896949;29;20028;-76
2023/08/19 05:16:22;;;;;;;30.40;19.38;;;22.70;99.90;;;;;;4881187;29;20043;-72
2023/08/19 05:19:03;;;;;;;25.10;18.38;;;22.80;99.90;;;;;;4881241;29;20097;-77
2023/08/19 05:21:29;;;;;;;24.02;18.33;;;22.80;99.90;;;;;;4896818;29;20041;-73
2023/08/19 05:23:55;;;;;;;23.63;18.42;;;22.80;99.90;;;;;;4897791;29;20088;-74
2023/08/19 05:26:21;;;;;;;25.67;19.35;;;22.70;99.90;;;;;;4895280;29;20123;-74
2023/08/19 05:28:47;;;;;;;23.23;18.77;;;22.70;99.90;;;;;;4896217;29;20465;-77
2023/08/19 05:31:13;;;;;;;24.00;18.67;;;22.70;99.90;;;;;;4897736;29;20028;-77
2023/08/19 05:33:38;;;;;;;26.25;18.23;;;22.70;99.90;;;;;;4906085;29;20024;-76
2023/08/19 05:36:04;;;;;;;24.45;19.60;;;22.60;99.90;;;;;;4902934;29;20500;-76
2023/08/19 05:38:30;;;;;;;25.20;19.30;;;22.60;99.90;;;;;;4906113;29;20052;-75
2023/08/19 05:40:57;;;;;;;25.33;18.33;;;22.60;99.90;;;;;;4904762;29;20123;-74
2023/08/19 05:43:23;;;;;;;24.73;18.63;;;22.70;99.90;;;;;;4891516;29;20025;-77
2023/08/19 05:45:49;;;;;;;25.05;18.33;;;22.90;99.90;;;;;;4912738;29;20481;-75
2023/08/19 05:48:14;;;;;;;22.75;17.52;;;23.10;99.90;;;;;;4898294;29;20063;-76
2023/08/19 05:50:40;;;;;;;23.13;16.15;;;23.20;99.90;;;;;;4897892;29;20465;-74
2023/08/19 05:53:06;;;;;;;20.45;16.35;;;23.20;99.90;;;;;;4898292;29;20036;-76
2023/08/19 05:55:32;;;;;;;21.40;16.52;;;23.10;99.90;;;;;;4897958;29;20152;-74
2023/08/19 05:57:57;;;;;;;24.25;15.57;;;23.20;99.90;;;;;;4898185;29;20044;-75
2023/08/19 06:00:23;;;;;;;22.17;16.38;;;23.20;99.90;;;;;;4897648;29;20036;-74
2023/08/19 06:02:49;;;;;;;21.23;15.68;;;23.40;99.90;;;;;;4898265;29;20032;-74
2023/08/19 06:05:15;;;;;;;24.10;18.13;;;23.50;99.90;;;;;;4897614;29;20029;-76
2023/08/19 06:07:41;;;;;;;21.50;14.05;;;23.70;99.90;;;;;;4897933;29;20044;-75
2023/08/19 06:10:07;;;;;;;18.90;12.45;;;23.90;99.90;;;;;;4897612;29;20041;-75
2023/08/19 06:12:33;;;;;;;20.63;14.00;;;24.30;99.90;;;;;;4897632;29;20047;-76
2023/08/19 06:14:58;;;;;;;17.60;12.80;;;24.30;99.90;;;;;;4905751;29;20224;-77
2023/08/19 06:17:24;;;;;;;17.20;12.00;;;24.40;99.90;;;;;;4902079;29;20028;-74
2023/08/19 06:19:50;;;;;;;16.25;11.40;;;24.60;99.90;;;;;;4912659;29;20540;-74
2023/08/19 06:22:16;;;;;;;14.98;10.80;;;24.80;99.90;;;;;;4897487;29;20039;-77
2023/08/19 06:24:42;;;;;;;13.38;10.23;;;25.20;99.90;;;;;;4897882;29;20060;-75
2023/08/19 06:27:07;;;;;;;14.65;10.80;;;25.40;99.90;;;;;;4897449;29;20039;-75
2023/08/19 06:29:33;;;;;;;15.82;10.40;;;25.70;99.90;;;;;;4897561;29;20028;-75
2023/08/19 06:31:59;;;;;;;14.63;9.68;;;25.50;99.90;;;;;;4909656;29;20384;-77
2023/08/19 06:34:25;;;;;;;15.02;10.20;;;25.40;99.90;;;;;;4903241;29;20024;-75
2023/08/19 06:36:55;;;;;;;17.50;9.15;;;25.50;99.90;;;;;;4897015;29;20079;-75
2023/08/19 06:39:26;;;;;;;14.80;9.43;;;25.50;99.90;;;;;;4897105;29;20079;-75
2023/08/19 06:42:01;;;;;;;13.73;9.13;;;25.50;99.90;;;;;;4909399;29;20072;-75
2023/08/19 06:44:29;;;;;;;14.63;8.68;;;25.70;99.90;;;;;;4897550;29;20031;-76
2023/08/19 06:46:57;;;;;;;16.10;9.00;;;26.10;99.90;;;;;;4901784;29;20041;-77
2023/08/19 06:49:23;;;;;;;13.98;9.85;;;26.40;99.90;;;;;;4896923;29;20052;-76
2023/08/19 06:51:49;;;;;;;12.82;8.88;;;26.60;99.90;;;;;;4897207;29;20044;-74
2023/08/19 06:54:16;;;;;;;12.93;8.65;;;26.60;99.90;;;;;;4902874;29;20032;-74
2023/08/19 06:56:43;;;;;;;15.23;8.65;;;26.50;99.90;;;;;;4899039;29;20028;-74
2023/08/19 06:59:20;;;;;;;13.18;7.82;;;26.20;99.90;;;;;;4898150;29;20047;-75
2023/08/19 07:01:55;;;;;;;15.30;10.50;;;26.30;99.90;;;;;;4911389;29;20057;-74
2023/08/19 07:04:27;;;;;;;16.27;9.63;;;26.70;99.90;;;;;;4912180;29;20059;-76
2023/08/19 07:06:58;;;;;;;16.80;9.85;;;26.80;99.90;;;;;;4915600;29;20038;-74
2023/08/19 07:09:25;;;;;;;15.80;10.13;;;26.70;99.90;;;;;;4916122;29;20039;-76
2023/08/19 07:11:57;;;;;;;13.98;10.45;;;26.70;99.90;;;;;;4915768;29;20020;-76
2023/08/19 07:14:25;;;;;;;16.02;10.85;;;26.70;99.90;;;;;;4915480;29;20033;-75
2023/08/19 07:16:53;;;;;;;14.18;9.93;;;26.70;99.90;;;;;;4903427;29;20522;-77
2023/08/19 07:19:39;;;;;;;13.93;9.07;;;26.90;99.90;;;;;;4915541;29;20056;-76
2023/08/19 07:22:06;;;;;;;17.00;9.90;;;27.10;99.90;;;;;;4915601;29;20160;-77
2023/08/19 07:24:32;;;;;;;18.55;9.13;;;27.00;99.90;;;;;;4914961;29;20032;-74
2023/08/19 07:27:03;;;;;;;13.73;9.35;;;27.00;99.90;;;;;;4915458;29;20040;-75
2023/08/19 07:29:30;;;;;;;15.25;9.85;;;26.80;99.90;;;;;;4916572;29;20032;-74
2023/08/19 07:31:57;;;;;;;13.55;8.77;;;26.50;99.90;;;;;;4919347;29;20032;-76
2023/08/19 07:34:23;;;;;;;14.93;9.88;;;26.50;99.90;;;;;;4919196;29;20024;-73
2023/08/19 07:36:49;;;;;;;14.23;9.60;;;26.30;99.90;;;;;;4911356;29;20065;-73
2023/08/19 07:39:15;;;;;;;23.98;9.95;;;26.30;99.90;;;;;;4900129;29;20100;-74
2023/08/19 07:41:41;;;;;;;16.50;9.95;;;26.20;99.90;;;;;;4899551;29;20068;-75
2023/08/19 07:44:07;;;;;;;14.68;9.13;;;26.10;99.90;;;;;;4900281;29;20040;-76
2023/08/19 07:46:33;;;;;;;15.05;8.48;;;26.10;99.90;;;;;;4913779;29;20044;-76
2023/08/19 07:48:59;;;;;;;17.92;9.60;;;26.10;99.90;;;;;;4900089;29;20141;-77
2023/08/19 07:51:25;;;;;;;15.15;8.98;;;26.10;99.90;;;;;;4903067;29;20042;-75
2023/08/19 07:53:51;;;;;;;19.45;9.88;;;26.10;99.90;;;;;;4899962;29;20063;-75
2023/08/19 07:56:17;;;;;;;18.83;10.82;;;26.20;99.90;;;;;;4912706;29;20441;-75
2023/08/19 07:58:43;;;;;;;18.08;10.10;;;26.10;99.90;;;;;;4906019;29;20373;-75
2023/08/19 08:01:10;;;;;;;13.48;9.55;;;26.10;99.90;;;;;;4900130;29;20021;-76
2023/08/19 08:03:38;;;;;;;13.35;8.70;;;26.00;99.90;;;;;;4900285;29;20063;-76
2023/08/19 08:06:04;;;;;;;17.42;9.73;;;26.00;99.90;;;;;;4905195;29;20030;-74
2023/08/19 08:08:30;;;;;;;18.83;9.02;;;26.20;99.90;;;;;;4899947;29;20037;-76
2023/08/19 08:10:56;;;;;;;16.80;8.65;;;26.50;99.90;;;;;;4906672;29;20020;-76
2023/08/19 08:13:22;;;;;;;16.17;9.00;;;27.10;99.90;;;;;;4917754;29;20512;-76
2023/08/19 08:15:48;;;;;;;13.32;8.23;;;27.20;99.90;;;;;;4899914;29;20035;-75
2023/08/19 08:18:15;;;;;;;14.48;8.13;;;27.40;99.90;;;;;;4913886;29;20496;-74
2023/08/19 08:20:41;;;;;;;13.07;8.13;;;27.80;99.90;;;;;;4918350;29;20428;-74
2023/08/19 08:23:07;;;;;;;14.45;9.15;;;27.80;99.90;;;;;;4918800;29;20032;-76
2023/08/19 08:25:32;;;;;;;14.07;8.70;;;28.10;99.90;;;;;;4918274;29;20087;-77
2023/08/19 08:27:58;;;;;;;15.55;10.15;;;28.40;99.90;;;;;;4918429;29;20040;-76
2023/08/19 08:30:24;;;;;;;15.35;8.85;;;28.30;99.90;;;;;;4918228;29;20031;-74
2023/08/19 08:32:51;;;;;;;16.13;8.68;;;28.40;99.90;;;;;;4917901;29;20028;-76
2023/08/19 08:35:17;;;;;;;13.85;8.75;;;28.50;99.90;;;;;;4917488;29;20092;-75
2023/08/19 08:37:43;;;;;;;17.17;9.73;;;28.60;99.90;;;;;;4917405;29;20048;-73
2023/08/19 08:40:09;;;;;;;17.35;12.02;;;28.70;99.90;;;;;;4923051;29;20132;-75
2023/08/19 08:42:35;;;;;;;17.65;12.18;;;28.40;99.90;;;;;;4913237;29;20031;-74
2023/08/19 08:45:02;;;;;;;16.83;10.73;;;28.70;99.90;;;;;;4903701;29;20043;-76
2023/08/19 08:47:29;;;;;;;14.75;10.00;;;29.10;99.90;;;;;;4918037;29;20098;-77
2023/08/19 08:49:56;;;;;;;19.38;12.13;;;29.00;99.90;;;;;;4916671;29;20019;-75
2023/08/19 08:52:23;;;;;;;18.40;11.70;;;28.60;99.90;;;;;;4906452;29;20043;-74
2023/08/19 08:54:51;;;;;;;17.92;10.90;;;28.80;99.90;;;;;;4900716;29;20047;-76
2023/08/19 08:57:17;;;;;;;19.10;11.15;;;29.00;99.90;;;;;;4902807;29;20036;-74
2023/08/19 08:59:50;;;;;;;18.58;12.13;;;;;;;;;;4916871;29;20024;-76
2023/08/19 09:02:19;;;;;;;16.00;11.93;;;;;;;;;;4911640;29;20039;-76
2023/08/19 09:04:49;;;;;;;16.73;11.98;;;;;;;;;;4903452;29;20032;-75
2023/08/19 09:07:29;;;;;;;18.70;12.57;;;;;;;;;;4922874;29;20225;-77
2023/08/19 09:09:57;;;;;;;16.50;12.43;;;;;;;;;;4904084;29;20036;-77
2023/08/19 09:12:25;;;;;;;18.35;13.02;;;30.70;99.90;;;;;;4897162;29;20064;-74
2023/08/19 09:15:01;;;;;;;16.98;13.25;;;29.30;99.90;;;;;;4896082;29;20016;-77
2023/08/19 09:17:27;;;;;;;20.35;13.15;;;29.50;99.90;;;;;;4901710;29;20033;-77
2023/08/19 09:19:54;;;;;;;15.02;11.50;;;29.60;99.90;;;;;;4902196;29;20027;-76
2023/08/19 09:22:23;;;;;;;17.73;11.70;;;29.60;99.90;;;;;;4908991;29;20092;-75
2023/08/19 09:24:52;;;;;;;17.88;12.80;;;29.80;99.70;;;;;;4917339;29;20035;-75
2023/08/19 09:27:30;;;;;;;17.35;12.07;;;29.90;99.40;;;;;;4917481;29;20043;-74
2023/08/19 09:29:57;;;;;;;20.52;12.65;;;29.70;99.90;;;;;;4917423;29;20050;-75
2023/08/19 09:32:30;;;;;;;18.95;14.00;;;30.00;99.80;;;;;;4917565;29;20036;-76
2023/08/19 09:35:08;;;;;;;19.60;13.45;;;29.80;99.70;;;;;;4917413;29;20035;-75
2023/08/19 09:37:35;;;;;;;19.80;13.30;;;29.80;99.00;;;;;;4916942;29;20138;-73
2023/08/19 09:40:10;;;;;;;19.10;14.43;;;29.90;98.70;;;;;;4916977;29;20032;-74
2023/08/19 09:42:38;;;;;;;20.45;13.68;;;29.80;99.90;;;;;;4917128;29;20039;-76
2023/08/19 09:45:06;;;;;;;17.75;12.32;;;29.80;99.90;;;;;;4917143;29;20032;-76
2023/08/19 09:47:51;;;;;;;21.13;13.43;;;30.20;99.90;;;;;;4917309;29;20046;-75
2023/08/19 09:50:19;;;;;;;18.48;13.27;;;30.30;99.20;;;;;;4917213;29;20028;-74
2023/08/19 09:52:58;;;;;;;18.10;13.55;;;30.30;99.30;;;;;;4899288;29;20036;-76
2023/08/19 09:55:33;;;;;;;17.10;13.80;;;30.50;99.00;;;;;;4917160;29;20032;-74
2023/08/19 09:57:59;;;;;;;20.40;13.68;;;30.50;98.30;;;;;;4916800;29;20028;-73
2023/08/19 10:00:25;;;;;;;16.55;12.98;;;30.30;99.00;;;;;;4916975;29;20028;-73
2023/08/19 10:02:51;;;;;;;16.58;12.68;;;30.60;99.90;;;;;;4916602;29;20483;-74
2023/08/19 10:05:17;;;;;;;21.10;13.98;;;30.70;99.80;;;;;;4917103;29;20083;-74
2023/08/19 10:07:53;;;;;;;18.63;14.05;;;30.70;99.40;;;;;;4916226;29;20373;-76
2023/08/19 10:10:21;;;;;;;18.08;13.77;;;30.70;99.90;;;;;;4916546;29;20036;-76
2023/08/19 10:12:50;;;;;;;21.48;14.50;;;30.60;99.90;;;;;;4916976;29;20472;-76
2023/08/19 10:15:18;;;;;;;22.80;13.70;;;30.70;99.90;;;;;;4916603;29;20059;-75
2023/08/19 10:17:50;;;;;;;19.10;14.13;;;30.60;99.90;;;;;;4913762;29;20318;-75
2023/08/19 10:20:20;;;;;;;20.02;14.60;;;30.70;99.90;;;;;;4908200;29;20115;-74
2023/08/19 10:22:51;;;;;;;19.63;14.15;;;30.60;99.90;;;;;;4916528;29;20472;-75
2023/08/19 10:25:19;;;;;;;18.50;14.45;;;30.90;99.90;;;;;;4916628;29;20032;-75
2023/08/19 10:27:45;;;;;;;18.17;14.68;;;;;;;;;;4916110;29;20068;-76
2023/08/19 10:30:24;;;;;;;17.90;14.82;;;;;;;;;;4916512;29;20034;-74
2023/08/19 10:32:50;;;;;;;18.98;14.05;;;;;;;;;;4916444;29;20028;-72
2023/08/19 10:35:17;;;;;;;18.90;14.00;;;31.40;99.90;;;;;;4916437;29;20095;-74
2023/08/19 10:37:50;;;;;;;17.30;13.32;;;31.60;99.90;;;;;;4915871;29;20040;-71
2023/08/19 10:40:24;;;;;;;19.45;13.95;;;31.70;99.90;;;;;;4899273;29;20083;-72
2023/08/19 10:43:00;;;;;;;18.65;15.10;;;31.70;98.70;;;;;;4916330;29;20072;-72
2023/08/19 10:45:33;;;;;;;22.77;15.27;;;31.50;99.10;;;;;;4915970;29;20115;-73
2023/08/19 10:47:59;;;;;;;19.10;15.40;;;;;;;;;;4916084;29;20386;-73
2023/08/19 10:50:25;;;;;;;21.63;15.57;;;30.40;96.60;;;;;;4915925;29;20063;-74
2023/08/19 10:53:04;;;;;;;22.30;16.02;;;30.50;97.00;;;;;;4915832;29;20043;-73
2023/08/19 10:55:55;;;;;;;21.40;16.13;;;30.70;97.50;;;;;;4915969;29;20036;-73
2023/08/19 10:58:22;;;;;;;18.13;14.67;;;30.50;97.30;;;;;;4916384;29;20035;-73
2023/08/19 11:00:49;;;;;;;20.27;15.65;;;30.70;97.60;;;;;;4915968;29;20028;-76
2023/08/19 11:03:19;;;;;;;20.25;16.38;;;30.80;98.10;;;;;;4915654;29;20025;-73
2023/08/19 11:05:52;;;;;;;25.20;14.75;;;30.70;96.50;;;;;;4915156;29;20148;-76
2023/08/19 11:08:18;;;;;;;19.40;14.45;;;31.10;99.00;;;;;;4915895;29;20047;-73
2023/08/19 11:10:47;;;;;;;19.67;14.55;;;31.30;99.90;;;;;;4915696;29;20116;-75
2023/08/19 11:13:15;;;;;;;17.20;14.20;;;30.90;99.90;;;;;;4915892;29;20105;-71
2023/08/19 11:15:41;;;;;;;19.20;13.05;;;31.20;99.90;;;;;;4915629;29;20031;-74
2023/08/19 11:18:07;;;;;;;18.95;12.30;;;31.20;99.90;;;;;;4915550;29;20026;-74
2023/08/19 11:20:33;;;;;;;17.95;12.77;;;;;;;;;;4915930;29;20032;-76
2023/08/19 11:22:59;;;;;;;17.83;12.70;;;31.30;94.30;;;;;;4915472;29;20032;-74
2023/08/19 11:25:34;;;;;;;17.10;13.05;;;;;;;;;;4915807;29;20551;-72
2023/08/19 11:28:00;;;;;;;16.13;12.32;;;;;;;;;;4915530;29;20080;-71
2023/08/19 11:30:26;;;;;;;16.05;12.10;;;31.60;92.50;;;;;;4915851;29;20380;-74
2023/08/19 11:32:52;;;;;;;18.20;12.48;;;;;;;;;;4915554;29;20043;-74
2023/08/19 11:35:19;;;;;;;16.58;11.95;;;;;;;;;;4915783;29;20028;-74
2023/08/19 11:37:45;;;;;;;18.48;13.30;;;;;;;;;;4915241;29;20044;-75
2023/08/19 11:40:13;;;;;;;16.17;10.65;;;;;;;;;;4915394;29;20095;-75
2023/08/19 11:42:39;;;;;;;17.08;12.07;;;;;;;;;;4915684;29;20507;-75
2023/08/19 11:45:12;;;;;;;20.02;10.07;;;;;;;;;;4915311;29;20103;-76
2023/08/19 11:47:38;;;;;;;15.02;9.10;;;;;;;;;;4915451;29;20072;-74
2023/08/19 11:50:05;;;;;;;11.07;8.13;;;;;;;;;;4915277;29;20052;-74
2023/08/19 11:52:32;;;;;;;15.55;9.60;;;;;;;;;;4915522;29;20488;-76
2023/08/19 11:55:00;;;;;;;18.17;10.75;;;;;;;;;;4915348;29;20083;-73
2023/08/19 11:57:32;;;;;;;15.57;12.27;;;;;;;;;;4915255;29;20092;-75
2023/08/19 11:59:58;;;;;;;15.48;10.88;;;32.50;99.90;;;;;;4915573;29;20039;-76
2023/08/19 12:02:24;;;;;;;18.92;11.68;;;;;;;;;;4915224;29;20103;-74
2023/08/19 12:04:54;;;;;;;20.85;12.77;;;;;;;;;;4915414;29;20070;-76
2023/08/19 12:07:25;;;;;;;18.30;11.90;;;;;;;;;;4898034;29;20043;-76
2023/08/19 12:09:52;;;;;;;;;;;;;;;;;;4915667;29;20071;-75
2023/08/19 12:12:18;;;;;;;13.85;10.30;;;;;;;;;;4915188;29;19911;-76
2023/08/19 12:14:44;;;;;;;14.10;10.52;;;;;;;;;;4914978;29;20043;-74
2023/08/19 12:17:11;;;;;;;15.65;10.48;;;;;;;;;;4918842;29;20067;-76
2023/08/19 12:19:37;;;;;;;16.67;9.82;;;;;;;;;;4918548;29;20042;-76
2023/08/19 12:22:04;;;;;;;13.82;9.93;;;;;;;;;;4918810;29;20028;-74
2023/08/19 12:24:30;;;;;;;14.13;9.02;;;;;;;;;;4918619;29;20032;-75
2023/08/19 12:26:56;;;;;;;12.52;8.82;;;;;;;;;;4918646;29;20032;-76
2023/08/19 12:29:22;;;;;;;14.13;8.77;;;;;;;;;;4918556;29;20051;-76
2023/08/19 12:31:48;;;;;;;15.30;8.95;;;;;;;;;;4918760;29;20036;-76
2023/08/19 12:34:15;;;;;;;10.88;6.60;;;;;;;;;;4918422;29;20490;-73
2023/08/19 12:36:41;;;;;;;17.30;7.95;;;;;;;;;;4918846;29;20024;-75
2023/08/19 12:39:08;;;;;;;11.55;7.65;;;;;;;;;;4917938;29;20131;-76
2023/08/19 12:41:34;;;;;;;19.73;7.68;;;;;;;;;;4918102;29;20138;-73
2023/08/19 12:44:01;;;;;;;9.90;6.45;;;;;;;;;;4914001;29;20474;-75
2023/08/19 12:46:40;;;;;;;10.13;7.35;;;;;;;;;;4911862;29;20032;-74